Webcams

Webcam1&2         Webcam1 (Zeitraffer 2 Std.)        Webcam2 (Zeitraffer 2 Std.)

Webcam2 - Zeitraffer (die letzten zwei Stunden, Intervall: 10min)
cam2--20180820_163957M
cam2--20180820_164959M
cam2--20180820_165959M
cam2--20180820_170959M
cam2--20180820_171958M
cam2--20180820_172958M
cam2--20180820_173959M
cam2--20180820_174958M
cam2--20180820_175958M
cam2--20180820_180958M
cam2--20180820_181958M
cam2--20180820_182959M
cam2--20180820_183958M
01/13 
start stop bwd fwd

Webcam2 - Aktuell

Lokale Serverzeit 18:40 | 20.08.2018
Webcam-Lageplan

Flugwetter

[source: ADDS]
METAR
LOWL 201620Z AUTO 32008KT 9999 NSC 31/12 Q1016 NOSIG =
TAF
TAF LOWL 201115Z 2012/2112 26004KT 9999 FEW060 TX31/2015Z TN19/2104Z TEMPO 2012/2016 30010KT FEW060CB =